createdAt,value
2022-10-13T00:00:15.199Z,7.68
2022-10-13T00:02:17.070Z,7.66
2022-10-13T00:04:18.156Z,7.65
2022-10-13T00:06:20.076Z,7.7
2022-10-13T00:08:21.166Z,7.71
2022-10-13T00:10:22.761Z,7.7
2022-10-13T00:12:24.258Z,7.68
2022-10-13T00:14:25.990Z,7.68
2022-10-13T00:16:27.625Z,7.56
2022-10-13T00:18:29.406Z,7.46
2022-10-13T00:20:30.846Z,7.41
2022-10-13T00:22:32.309Z,7.48
2022-10-13T00:24:34.046Z,7.47
2022-10-13T00:26:35.180Z,7.54
2022-10-13T00:28:37.076Z,7.65
2022-10-13T00:30:38.636Z,7.72
2022-10-13T00:32:40.353Z,7.8
2022-10-13T00:34:42.298Z,7.78
2022-10-13T00:36:43.932Z,7.81
2022-10-13T00:38:45.173Z,7.78
2022-10-13T00:40:46.848Z,7.76
2022-10-13T00:42:48.625Z,7.76
2022-10-13T00:44:50.025Z,7.72
2022-10-13T00:46:51.292Z,7.72
2022-10-13T00:48:52.653Z,7.8
2022-10-13T00:50:53.799Z,7.77
2022-10-13T00:52:55.749Z,7.75
2022-10-13T00:54:57.114Z,7.67
2022-10-13T00:56:58.466Z,7.66
2022-10-13T00:58:59.592Z,7.69
2022-10-13T01:01:01.585Z,7.54
2022-10-13T01:03:03.312Z,7.44
2022-10-13T01:05:04.853Z,7.35
2022-10-13T01:07:06.794Z,7.31
2022-10-13T01:09:07.972Z,7.25
2022-10-13T01:11:09.469Z,7.21
2022-10-13T01:13:10.671Z,7.18
2022-10-13T01:15:12.164Z,7.08
2022-10-13T01:17:14.040Z,7.07
2022-10-13T01:19:15.298Z,7.09
2022-10-13T01:21:16.732Z,7.07
2022-10-13T01:23:18.105Z,6.98
2022-10-13T01:25:19.709Z,6.96
2022-10-13T01:27:21.562Z,7.16
2022-10-13T01:29:22.894Z,7.26
2022-10-13T01:31:24.120Z,7.3
2022-10-13T01:33:25.427Z,7.39
2022-10-13T01:35:27.170Z,7.43
2022-10-13T01:37:28.483Z,7.48
2022-10-13T01:39:29.777Z,7.52
2022-10-13T01:41:31.307Z,7.53
2022-10-13T01:43:33.027Z,7.5
2022-10-13T01:45:34.046Z,7.53
2022-10-13T01:47:35.166Z,7.53
2022-10-13T01:49:36.754Z,7.5
2022-10-13T01:51:38.378Z,7.45
2022-10-13T01:53:39.882Z,7.42
2022-10-13T01:55:41.649Z,7.41
2022-10-13T01:57:43.487Z,7.39
2022-10-13T01:59:44.628Z,7.32
2022-10-13T02:01:46.368Z,7.29
2022-10-13T02:03:47.629Z,7.27
2022-10-13T02:05:49.335Z,7.25
2022-10-13T02:07:50.661Z,7.22
2022-10-13T02:09:51.952Z,7.18
2022-10-13T02:11:53.462Z,7.17
2022-10-13T02:13:55.370Z,7.14
2022-10-13T02:15:56.391Z,7.08
2022-10-13T02:17:57.414Z,7.06
2022-10-13T02:19:58.720Z,7.06
2022-10-13T02:21:59.845Z,7.06
2022-10-13T02:24:01.075Z,7.04
2022-10-13T02:26:02.439Z,7.01
2022-10-13T02:28:04.091Z,7.1
2022-10-13T02:30:05.355Z,7.17
2022-10-13T02:32:06.386Z,7.21
2022-10-13T02:34:07.850Z,7.25
2022-10-13T02:36:09.387Z,7.25
2022-10-13T02:38:11.232Z,7.13
2022-10-13T02:40:12.815Z,7.05
2022-10-13T02:42:14.061Z,6.96
2022-10-13T02:44:15.234Z,6.92
2022-10-13T02:46:16.804Z,6.93
2022-10-13T02:48:18.172Z,6.97
2022-10-13T02:50:19.759Z,6.95
2022-10-13T02:52:21.223Z,6.91
2022-10-13T02:54:22.712Z,6.85
2022-10-13T02:56:24.536Z,6.86
2022-10-13T02:58:26.287Z,6.85
2022-10-13T03:00:27.721Z,6.91
2022-10-13T03:02:29.056Z,6.93
2022-10-13T03:04:30.869Z,6.89
2022-10-13T03:06:32.557Z,6.85
2022-10-13T03:08:34.300Z,6.82
2022-10-13T03:10:35.865Z,6.86
2022-10-13T03:12:37.181Z,6.82
2022-10-13T03:14:38.388Z,6.8
2022-10-13T03:16:39.627Z,6.79
2022-10-13T03:18:40.906Z,6.79
2022-10-13T03:20:42.491Z,6.8
2022-10-13T03:22:47.348Z,6.78
2022-10-13T03:26:46.514Z,6.78
2022-10-13T03:28:47.759Z,6.75
2022-10-13T03:30:49.543Z,6.71
2022-10-13T03:32:50.623Z,6.74
2022-10-13T03:34:51.940Z,6.68
2022-10-13T03:36:53.314Z,6.79
2022-10-13T03:38:54.974Z,6.82
2022-10-13T03:40:56.209Z,6.8
2022-10-13T03:42:57.460Z,6.8
2022-10-13T03:44:58.797Z,6.79
2022-10-13T03:47:00.219Z,6.76
2022-10-13T03:49:02.011Z,6.8
2022-10-13T03:51:03.777Z,6.85
2022-10-13T03:53:05.719Z,6.83
2022-10-13T03:55:06.856Z,6.83
2022-10-13T03:57:08.687Z,6.83
2022-10-13T03:59:10.570Z,6.88
2022-10-13T04:01:12.146Z,6.9
2022-10-13T04:03:13.594Z,6.95
2022-10-13T04:05:14.964Z,6.94
2022-10-13T04:07:16.054Z,6.96
2022-10-13T04:09:17.511Z,6.94
2022-10-13T04:11:18.579Z,6.94
2022-10-13T04:13:20.088Z,6.92
2022-10-13T04:15:21.158Z,6.86
2022-10-13T04:17:22.535Z,6.99
2022-10-13T04:19:23.587Z,7.03
2022-10-13T04:21:24.977Z,7.05
2022-10-13T04:23:26.248Z,7.06
2022-10-13T04:25:27.246Z,7.06
2022-10-13T04:27:28.899Z,7.07
2022-10-13T04:29:30.400Z,7.13
2022-10-13T04:31:31.516Z,7.14
2022-10-13T04:33:33.349Z,7.11
2022-10-13T04:35:34.790Z,7.03
2022-10-13T04:37:36.419Z,7.03
2022-10-13T04:39:37.967Z,7
2022-10-13T04:41:39.747Z,6.96
2022-10-13T04:43:40.708Z,6.94
2022-10-13T04:45:41.747Z,6.88
2022-10-13T04:47:42.793Z,6.99
2022-10-13T04:49:44.255Z,7.17
2022-10-13T04:51:45.398Z,7.14
2022-10-13T04:53:46.914Z,7.11
2022-10-13T04:55:48.750Z,7.14
2022-10-13T04:57:50.167Z,7.19
2022-10-13T04:59:51.949Z,7.12
2022-10-13T05:01:53.010Z,7.03
2022-10-13T05:03:54.011Z,7.05
2022-10-13T05:05:55.762Z,7.1
2022-10-13T05:07:57.053Z,7.24
2022-10-13T05:09:58.108Z,7.36
2022-10-13T05:11:59.592Z,7.49
2022-10-13T05:14:00.951Z,7.48
2022-10-13T05:16:02.528Z,7.45
2022-10-13T05:18:04.256Z,7.47
2022-10-13T05:20:05.285Z,7.38
2022-10-13T05:22:06.428Z,7.35
2022-10-13T05:24:07.846Z,7.4
2022-10-13T05:26:09.465Z,7.53
2022-10-13T05:28:10.866Z,7.6
2022-10-13T05:30:12.807Z,7.68
2022-10-13T05:32:14.509Z,7.72
2022-10-13T05:34:15.787Z,7.79
2022-10-13T05:36:16.758Z,7.83
2022-10-13T05:38:19.609Z,7.96
2022-10-13T05:40:19.430Z,8.08
2022-10-13T05:42:21.328Z,8.3
2022-10-13T05:44:22.212Z,8.55
2022-10-13T05:46:23.271Z,8.78
2022-10-13T05:48:24.529Z,8.88
2022-10-13T05:50:26.097Z,9.07
2022-10-13T05:52:27.660Z,9.21
2022-10-13T05:54:28.995Z,8.55
2022-10-13T05:56:29.988Z,8.51
2022-10-13T05:58:31.324Z,8.52
2022-10-13T06:00:32.545Z,8.51
2022-10-13T06:02:33.476Z,8.35
2022-10-13T06:04:34.904Z,8.34
2022-10-13T06:06:36.034Z,8.29
2022-10-13T06:08:37.433Z,8.23
2022-10-13T06:10:39.146Z,8.04
2022-10-13T06:12:40.522Z,7.94
2022-10-13T06:14:41.846Z,8.01
2022-10-13T06:16:43.772Z,8.07
2022-10-13T06:18:45.488Z,8.18
2022-10-13T06:20:47.080Z,8.27
2022-10-13T06:22:48.174Z,8.34
2022-10-13T06:23:31.981Z,8.34
2022-10-13T06:25:32.931Z,8.37
2022-10-13T06:27:34.851Z,8.4
2022-10-13T06:29:36.252Z,8.45
2022-10-13T06:31:37.428Z,8.53
2022-10-13T06:33:39.272Z,8.56
2022-10-13T06:35:41.155Z,8.6
2022-10-13T06:37:42.148Z,8.62
2022-10-13T06:39:43.886Z,8.62
2022-10-13T06:41:44.971Z,8.72
2022-10-13T06:43:46.043Z,8.71
2022-10-13T06:45:47.222Z,8.77
2022-10-13T06:47:48.149Z,8.81
2022-10-13T06:49:49.532Z,8.91
2022-10-13T06:51:51.134Z,9
2022-10-13T06:53:52.109Z,9
2022-10-13T06:56:02.709Z,9.05
2022-10-13T06:57:55.140Z,9.19
2022-10-13T06:59:56.793Z,9.41
2022-10-13T07:01:57.863Z,9.42
2022-10-13T07:03:59.301Z,9.43
2022-10-13T07:06:00.648Z,9.51
2022-10-13T07:08:01.777Z,9.61
2022-10-13T07:10:03.592Z,9.8
2022-10-13T07:12:05.324Z,9.82
2022-10-13T07:14:06.402Z,9.82
2022-10-13T07:16:08.331Z,9.84
2022-10-13T07:18:10.034Z,9.77
2022-10-13T07:20:10.964Z,9.83
2022-10-13T07:22:12.223Z,9.75
2022-10-13T07:24:13.660Z,9.56
2022-10-13T07:26:14.816Z,9.41
2022-10-13T07:28:16.669Z,9.47
2022-10-13T07:30:18.275Z,9.41
2022-10-13T07:32:19.515Z,9.49
2022-10-13T07:34:20.598Z,9.6
2022-10-13T07:36:22.007Z,9.83
2022-10-13T07:38:23.225Z,9.89
2022-10-13T07:40:24.703Z,9.93
2022-10-13T07:42:26.435Z,10.05
2022-10-13T07:44:27.496Z,10.29
2022-10-13T07:46:29.816Z,10.5
2022-10-13T07:48:30.651Z,10.51
2022-10-13T07:50:31.614Z,10.74
2022-10-13T07:52:32.662Z,10.8
2022-10-13T07:54:33.741Z,11.02
2022-10-13T07:56:35.245Z,11.3
2022-10-13T07:58:36.837Z,11.58
2022-10-13T08:00:38.636Z,11.6
2022-10-13T08:02:40.376Z,11.35
2022-10-13T08:04:41.445Z,11.41
2022-10-13T08:08:43.730Z,11.6
2022-10-13T08:10:44.949Z,11.66
2022-10-13T08:12:46.513Z,11.73
2022-10-13T08:16:50.091Z,11.9
2022-10-13T08:18:49.966Z,11.71
2022-10-13T08:20:53.195Z,11.78
2022-10-13T08:22:52.853Z,11.81
2022-10-13T08:24:54.416Z,11.92
2022-10-13T08:26:55.600Z,11.84
2022-10-13T08:29:09.750Z,11.94
2022-10-13T08:30:59.019Z,12.03
2022-10-13T08:33:00.786Z,11.92
2022-10-13T08:35:01.762Z,12.09
2022-10-13T08:37:02.947Z,12.29
2022-10-13T08:39:04.266Z,12.38
2022-10-13T08:41:05.628Z,12.42
2022-10-13T08:43:07.009Z,12.48
2022-10-13T08:45:36.074Z,12.75
2022-10-13T08:47:11.045Z,13
2022-10-13T08:49:12.534Z,13.29
2022-10-13T08:51:14.129Z,13.79
2022-10-13T08:53:15.496Z,13.79
2022-10-13T08:55:17.275Z,14.19
2022-10-13T08:57:19.203Z,14.54
2022-10-13T08:59:20.410Z,14.57
2022-10-13T09:01:21.405Z,14.48
2022-10-13T09:03:23.148Z,14.41
2022-10-13T09:05:24.821Z,14.27
2022-10-13T09:07:26.470Z,14.54
2022-10-13T09:09:27.637Z,14.5
2022-10-13T09:11:29.145Z,14.55
2022-10-13T09:13:30.775Z,14.54
2022-10-13T09:15:32.169Z,14.24
2022-10-13T09:17:33.106Z,14.22
2022-10-13T09:19:34.452Z,14.7
2022-10-13T09:21:36.212Z,15.02
2022-10-13T09:23:39.462Z,15.06
2022-10-13T09:25:38.811Z,14.84
2022-10-13T09:27:39.637Z,15.4
2022-10-13T09:29:40.819Z,15.26
2022-10-13T09:31:42.202Z,15.45
2022-10-13T09:33:43.911Z,15.27
2022-10-13T09:35:45.344Z,15.32
2022-10-13T09:37:47.067Z,15.64
2022-10-13T09:39:48.272Z,15.61
2022-10-13T09:41:49.770Z,15.81
2022-10-13T09:43:51.029Z,16.04
2022-10-13T09:45:52.708Z,16.39
2022-10-13T09:47:54.377Z,16.59
2022-10-13T09:50:06.343Z,16.51
2022-10-13T09:51:57.271Z,16.68
2022-10-13T09:53:58.156Z,17.26
2022-10-13T09:55:59.118Z,17.01
2022-10-13T09:58:00.130Z,16.86
2022-10-13T10:02:02.761Z,16.98
2022-10-13T10:04:04.121Z,17.3
2022-10-13T10:06:05.097Z,17.12
2022-10-13T10:08:06.495Z,17.25
2022-10-13T10:10:07.934Z,17.65
2022-10-13T10:12:09.002Z,17.55
2022-10-13T10:14:10.191Z,17.8
2022-10-13T10:16:11.647Z,17.75
2022-10-13T10:18:13.349Z,17.46
2022-10-13T10:20:14.823Z,17.56
2022-10-13T10:22:16.375Z,17.58
2022-10-13T10:24:17.592Z,17.73
2022-10-13T10:26:22.203Z,17.24
2022-10-13T10:28:20.168Z,17.37
2022-10-13T10:30:21.895Z,17.34
2022-10-13T10:32:23.203Z,17.44
2022-10-13T10:34:24.639Z,17.47
2022-10-13T10:36:25.653Z,17.48
2022-10-13T10:38:26.560Z,17.28
2022-10-13T10:40:27.711Z,17.51
2022-10-13T10:42:28.555Z,17.54
2022-10-13T10:44:29.624Z,17.16
2022-10-13T10:46:30.369Z,17.15
2022-10-13T10:48:31.622Z,17.33
2022-10-13T10:50:32.508Z,17.37
2022-10-13T10:52:33.845Z,17.28
2022-10-13T10:54:35.514Z,17.19
2022-10-13T10:56:36.608Z,17.31
2022-10-13T10:58:37.936Z,17.31
2022-10-13T11:00:39.159Z,17.11
2022-10-13T11:02:40.361Z,16.99
2022-10-13T11:04:41.862Z,17
2022-10-13T11:06:43.231Z,17.11
2022-10-13T11:08:44.831Z,17.07
2022-10-13T11:10:46.465Z,17.06
2022-10-13T11:12:47.830Z,16.84
2022-10-13T11:14:49.267Z,16.79
2022-10-13T11:16:50.285Z,16.87
2022-10-13T11:18:51.636Z,16.91
2022-10-13T11:20:52.594Z,16.83
2022-10-13T11:22:54.317Z,16.71
2022-10-13T11:24:56.098Z,16.68
2022-10-13T11:26:57.006Z,16.51
2022-10-13T11:28:58.849Z,16.71
2022-10-13T11:31:00.531Z,16.82
2022-10-13T11:33:01.980Z,16.8
2022-10-13T11:35:02.748Z,16.82
2022-10-13T11:37:04.011Z,16.72
2022-10-13T11:39:05.401Z,16.67
2022-10-13T11:41:06.742Z,16.7
2022-10-13T11:43:08.506Z,16.63
2022-10-13T11:45:09.917Z,16.39
2022-10-13T11:47:10.825Z,16.35
2022-10-13T11:49:11.881Z,16.48
2022-10-13T11:51:14.020Z,16.49
2022-10-13T11:53:14.512Z,16.42
2022-10-13T11:55:15.954Z,16.3
2022-10-13T11:57:17.022Z,16.34
2022-10-13T11:59:18.526Z,16.31
2022-10-13T12:01:20.056Z,16.27
2022-10-13T12:03:21.121Z,16.19
2022-10-13T12:05:22.509Z,16.27
2022-10-13T12:07:23.678Z,16.14
2022-10-13T12:09:25.383Z,16.05
2022-10-13T12:13:27.769Z,16
2022-10-13T12:15:29.050Z,15.91
2022-10-13T12:17:30.525Z,15.92
2022-10-13T12:19:31.694Z,15.77
2022-10-13T12:21:33.152Z,15.67
2022-10-13T12:23:34.794Z,15.65
2022-10-13T12:25:36.479Z,15.63
2022-10-13T12:27:38.213Z,15.68
2022-10-13T12:29:40.060Z,15.6
2022-10-13T12:31:41.467Z,15.65
2022-10-13T12:33:42.932Z,15.66
2022-10-13T12:35:44.332Z,15.78
2022-10-13T12:37:45.563Z,15.85
2022-10-13T12:39:46.800Z,15.97
2022-10-13T12:41:48.602Z,15.97
2022-10-13T12:43:49.761Z,16.15
2022-10-13T12:45:51.418Z,16.33
2022-10-13T12:47:52.464Z,16.41
2022-10-13T12:51:55.405Z,16.44
2022-10-13T12:53:56.483Z,16.3
2022-10-13T12:55:57.533Z,16.04
2022-10-13T12:57:58.763Z,16.24
2022-10-13T12:59:59.724Z,16.14
2022-10-13T13:02:00.868Z,16.05
2022-10-13T13:04:01.831Z,16.1
2022-10-13T13:06:02.772Z,16.1
2022-10-13T13:08:04.000Z,16.19
2022-10-13T13:10:48.698Z,15.85
2022-10-13T13:12:50.506Z,15.88
2022-10-13T13:14:51.971Z,15.83
2022-10-13T13:16:55.447Z,15.91
2022-10-13T13:18:54.013Z,15.77
2022-10-13T13:20:55.548Z,15.72
2022-10-13T13:22:57.165Z,15.73
2022-10-13T13:24:58.351Z,15.73
2022-10-13T13:26:59.794Z,15.73
2022-10-13T13:29:01.029Z,15.81
2022-10-13T13:31:01.942Z,15.9
2022-10-13T13:33:03.176Z,15.96
2022-10-13T13:35:04.323Z,16.09
2022-10-13T13:37:05.443Z,16.27
2022-10-13T13:39:07.161Z,16.39
2022-10-13T13:41:08.672Z,16.38
2022-10-13T13:43:09.993Z,16.33
2022-10-13T13:45:11.514Z,16.23
2022-10-13T13:49:13.787Z,16.52
2022-10-13T13:51:15.182Z,16.72
2022-10-13T13:53:16.346Z,16.78
2022-10-13T13:55:17.683Z,16.82
2022-10-13T13:57:18.932Z,17.12
2022-10-13T13:59:20.497Z,17.15
2022-10-13T14:01:22.045Z,16.86
2022-10-13T14:03:23.083Z,16.8
2022-10-13T14:05:24.482Z,16.54
2022-10-13T14:07:26.312Z,16.69
2022-10-13T14:09:27.655Z,16.73
2022-10-13T14:11:28.994Z,16.54
2022-10-13T14:13:30.056Z,16.55
2022-10-13T14:15:31.071Z,16.58
2022-10-13T14:17:32.367Z,16.6
2022-10-13T14:19:33.413Z,16.67
2022-10-13T14:21:34.302Z,16.58
2022-10-13T14:23:36.043Z,16.63
2022-10-13T14:25:36.975Z,16.56
2022-10-13T14:27:38.291Z,16.56
2022-10-13T14:29:39.241Z,16.46
2022-10-13T14:31:40.523Z,16.35
2022-10-13T14:33:42.179Z,16.35
2022-10-13T14:35:43.486Z,16.23
2022-10-13T14:37:45.235Z,16.26
2022-10-13T14:39:46.835Z,16.17
2022-10-13T14:41:48.165Z,16.13
2022-10-13T14:43:49.240Z,16.07
2022-10-13T14:45:50.471Z,15.98
2022-10-13T14:47:51.589Z,16
2022-10-13T14:49:52.567Z,15.98
2022-10-13T14:51:53.987Z,15.91
2022-10-13T14:53:55.676Z,15.82
2022-10-13T14:55:57.371Z,15.82
2022-10-13T14:57:58.560Z,15.79
2022-10-13T15:00:02.012Z,15.82
2022-10-13T15:02:01.873Z,15.82
2022-10-13T15:04:03.691Z,15.81
2022-10-13T15:06:05.550Z,15.8
2022-10-13T15:08:07.330Z,15.83
2022-10-13T15:10:08.557Z,15.83
2022-10-13T15:12:09.660Z,15.82
2022-10-13T15:14:10.915Z,15.82
2022-10-13T15:16:12.338Z,15.8
2022-10-13T15:18:13.989Z,15.74
2022-10-13T15:20:15.172Z,15.7
2022-10-13T15:22:17.036Z,15.68
2022-10-13T15:24:18.705Z,15.68
2022-10-13T15:26:19.708Z,15.65
2022-10-13T15:28:21.458Z,15.59
2022-10-13T15:30:23.216Z,15.55
2022-10-13T15:32:25.277Z,15.55
2022-10-13T15:34:25.866Z,15.5
2022-10-13T15:36:27.268Z,15.49
2022-10-13T15:38:29.119Z,15.5
2022-10-13T15:40:30.965Z,15.45
2022-10-13T15:42:32.731Z,15.34
2022-10-13T15:44:51.273Z,15.33
2022-10-13T15:46:35.587Z,15.32
2022-10-13T15:48:36.493Z,15.3
2022-10-13T15:50:37.669Z,15.27
2022-10-13T15:52:38.944Z,15.26
2022-10-13T15:54:39.884Z,15.25
2022-10-13T15:56:41.412Z,15.25
2022-10-13T15:58:42.392Z,15.23
2022-10-13T16:00:44.159Z,15.21
2022-10-13T16:02:44.997Z,15.17
2022-10-13T16:04:46.534Z,15.1
2022-10-13T16:06:48.218Z,15.09
2022-10-13T16:08:49.583Z,15.04
2022-10-13T16:12:52.317Z,14.96
2022-10-13T16:14:53.291Z,14.94
2022-10-13T16:16:55.040Z,14.94
2022-10-13T16:18:56.705Z,14.96
2022-10-13T16:20:58.141Z,14.95
2022-10-13T16:22:59.678Z,14.9
2022-10-13T16:25:01.106Z,14.92
2022-10-13T16:27:02.850Z,14.9
2022-10-13T16:29:04.590Z,14.92
2022-10-13T16:31:05.917Z,14.87
2022-10-13T16:33:07.113Z,14.85
2022-10-13T16:35:08.911Z,14.82
2022-10-13T16:37:10.447Z,14.81
2022-10-13T16:39:11.783Z,14.79
2022-10-13T16:41:13.300Z,14.78
2022-10-13T16:43:14.620Z,14.72
2022-10-13T16:45:15.819Z,14.6
2022-10-13T16:47:18.553Z,14.5
2022-10-13T16:49:17.599Z,14.36
2022-10-13T16:51:19.077Z,14.26
2022-10-13T16:53:20.097Z,14.15
2022-10-13T16:55:21.425Z,14.11
2022-10-13T16:57:23.500Z,14.03
2022-10-13T16:59:24.124Z,14.02
2022-10-13T17:01:26.010Z,14.04
2022-10-13T17:03:27.241Z,14.02
2022-10-13T17:05:28.638Z,14.03
2022-10-13T17:07:30.401Z,14.04
2022-10-13T17:09:31.566Z,13.98
2022-10-13T17:11:33.170Z,13.99
2022-10-13T17:13:34.435Z,13.9
2022-10-13T17:15:35.530Z,13.87
2022-10-13T17:17:37.123Z,13.78
2022-10-13T17:19:38.428Z,13.74
2022-10-13T17:21:40.225Z,13.8
2022-10-13T17:23:45.998Z,13.79
2022-10-13T17:25:43.747Z,13.76
2022-10-13T17:27:45.215Z,13.63
2022-10-13T17:29:46.850Z,13.68
2022-10-13T17:31:47.888Z,13.69
2022-10-13T17:33:49.149Z,13.55
2022-10-13T17:35:50.883Z,13.47
2022-10-13T17:37:52.716Z,13.37
2022-10-13T17:39:54.023Z,13.41
2022-10-13T17:43:57.524Z,13.36
2022-10-13T17:46:12.249Z,13.3
2022-10-13T17:48:00.367Z,13.34
2022-10-13T17:50:02.053Z,13.36
2022-10-13T17:52:03.525Z,13.31
2022-10-13T17:54:05.059Z,13.31
2022-10-13T17:56:06.860Z,13.28
2022-10-13T17:58:08.464Z,13.27
2022-10-13T18:00:10.223Z,13.25
2022-10-13T18:02:11.370Z,13.25
2022-10-13T18:04:12.824Z,13.29
2022-10-13T18:06:14.099Z,13.26
2022-10-13T18:08:15.136Z,13.22
2022-10-13T18:10:16.601Z,13.26
2022-10-13T18:12:17.830Z,13.24
2022-10-13T18:14:18.777Z,13.29
2022-10-13T18:16:20.457Z,13.27
2022-10-13T18:18:21.813Z,13.28
2022-10-13T18:20:23.673Z,13.25
2022-10-13T18:22:24.972Z,13.25
2022-10-13T18:24:26.150Z,13.24
2022-10-13T18:26:27.164Z,13.03
2022-10-13T18:28:28.647Z,12.94
2022-10-13T18:30:30.164Z,12.88
2022-10-13T18:32:31.739Z,12.82
2022-10-13T18:34:32.646Z,12.83
2022-10-13T18:36:34.281Z,12.79
2022-10-13T18:38:35.250Z,12.74
2022-10-13T18:40:36.722Z,12.67
2022-10-13T18:42:38.366Z,12.7
2022-10-13T18:44:39.975Z,12.62
2022-10-13T18:46:41.504Z,12.59
2022-10-13T18:48:43.233Z,12.6
2022-10-13T18:50:45.062Z,12.57
2022-10-13T18:52:46.941Z,12.58
2022-10-13T18:54:48.485Z,12.5
2022-10-13T18:56:49.722Z,12.65
2022-10-13T18:58:52.659Z,12.66
2022-10-13T19:00:51.871Z,12.62
2022-10-13T19:02:52.985Z,12.57
2022-10-13T19:04:54.712Z,12.58
2022-10-13T19:06:56.120Z,12.55
2022-10-13T19:08:57.437Z,12.65
2022-10-13T19:10:59.025Z,12.69
2022-10-13T19:13:00.363Z,12.77
2022-10-13T19:15:01.631Z,12.81
2022-10-13T19:17:02.600Z,12.82
2022-10-13T19:19:03.714Z,12.84
2022-10-13T19:21:05.582Z,12.81
2022-10-13T19:23:07.307Z,12.74
2022-10-13T19:25:09.025Z,12.66
2022-10-13T19:27:10.571Z,12.59
2022-10-13T19:29:12.030Z,12.55
2022-10-13T19:31:13.654Z,12.61
2022-10-13T19:33:14.810Z,12.61
2022-10-13T19:35:16.036Z,12.58
2022-10-13T19:37:17.309Z,12.58
2022-10-13T19:39:18.916Z,12.74
2022-10-13T19:41:20.299Z,12.82
2022-10-13T19:43:21.242Z,12.87
2022-10-13T19:45:22.752Z,12.83
2022-10-13T19:47:24.030Z,12.8
2022-10-13T19:49:25.015Z,12.79
2022-10-13T19:51:26.113Z,12.78
2022-10-13T19:53:27.450Z,12.8
2022-10-13T19:56:13.132Z,12.8
2022-10-13T19:58:14.482Z,12.82
2022-10-13T20:00:15.421Z,12.82
2022-10-13T20:02:16.936Z,12.83
2022-10-13T20:04:18.817Z,12.85
2022-10-13T20:06:20.061Z,12.85
2022-10-13T20:08:21.267Z,12.85
2022-10-13T20:10:22.614Z,12.88
2022-10-13T20:12:23.823Z,12.9
2022-10-13T20:14:25.446Z,12.92
2022-10-13T20:16:26.651Z,12.6
2022-10-13T20:18:28.162Z,12.57
2022-10-13T20:20:29.333Z,12.55
2022-10-13T20:22:30.563Z,12.5
2022-10-13T20:24:31.743Z,12.46
2022-10-13T20:26:33.599Z,12.5
2022-10-13T20:28:38.079Z,12.47
2022-10-13T20:30:36.210Z,12.5
2022-10-13T20:32:37.301Z,12.5
2022-10-13T20:34:39.006Z,12.66
2022-10-13T20:36:40.818Z,12.7
2022-10-13T20:38:41.928Z,12.74
2022-10-13T20:40:43.292Z,12.78
2022-10-13T20:42:45.055Z,12.77
2022-10-13T20:44:46.828Z,12.76
2022-10-13T20:46:48.173Z,12.83
2022-10-13T20:49:09.688Z,12.84
2022-10-13T20:50:51.254Z,12.63
2022-10-13T20:52:52.504Z,12.55
2022-10-13T20:54:53.619Z,12.58
2022-10-13T20:56:54.504Z,12.59
2022-10-13T20:58:56.295Z,12.59
2022-10-13T21:00:57.537Z,12.59
2022-10-13T21:03:01.857Z,12.54
2022-10-13T21:05:00.412Z,12.69
2022-10-13T21:07:01.903Z,12.77
2022-10-13T21:09:03.158Z,12.8
2022-10-13T21:11:04.354Z,12.85
2022-10-13T21:13:05.355Z,12.84
2022-10-13T21:15:06.326Z,12.85
2022-10-13T21:17:07.977Z,12.88
2022-10-13T21:19:09.595Z,12.88
2022-10-13T21:21:11.081Z,12.91
2022-10-13T21:23:12.351Z,12.94
2022-10-13T21:25:13.359Z,13
2022-10-13T21:27:15.165Z,13.02
2022-10-13T21:29:16.849Z,13.01
2022-10-13T21:31:18.621Z,13.01
2022-10-13T21:33:19.571Z,13.11
2022-10-13T21:35:21.449Z,13.12
2022-10-13T21:37:23.505Z,13.14
2022-10-13T21:39:24.510Z,13.15
2022-10-13T21:41:26.363Z,13.16
2022-10-13T21:43:27.287Z,13.15
2022-10-13T21:45:28.303Z,13.2
2022-10-13T21:47:29.513Z,13.18
2022-10-13T21:49:30.872Z,13.17
2022-10-13T21:51:32.016Z,13.14
2022-10-13T21:53:32.977Z,13.16
2022-10-13T21:55:33.857Z,13.14
2022-10-13T21:57:35.714Z,13.12
2022-10-13T21:59:37.216Z,13.11
2022-10-13T22:01:38.350Z,13.11
2022-10-13T22:03:40.149Z,13.18
2022-10-13T22:05:41.157Z,13.17
2022-10-13T22:07:42.574Z,13.14
2022-10-13T22:09:43.812Z,13.2
2022-10-13T22:11:45.181Z,13.2
2022-10-13T22:13:46.147Z,13.17
2022-10-13T22:15:47.320Z,13.13
2022-10-13T22:17:48.554Z,13.11
2022-10-13T22:19:49.953Z,13.14
2022-10-13T22:21:51.281Z,13.13
2022-10-13T22:25:54.177Z,13.09
2022-10-13T22:27:56.041Z,13.07
2022-10-13T22:29:57.590Z,13.05
2022-10-13T22:31:59.132Z,13.05
2022-10-13T22:34:00.548Z,13.03
2022-10-13T22:36:01.496Z,13.05
2022-10-13T22:38:03.266Z,13.04
2022-10-13T22:40:05.162Z,13.06
2022-10-13T22:42:06.778Z,13.04
2022-10-13T22:44:08.052Z,13.06
2022-10-13T22:46:09.712Z,13.06
2022-10-13T22:48:11.495Z,13.06
2022-10-13T22:50:12.338Z,13.06
2022-10-13T22:52:13.908Z,13.03
2022-10-13T22:54:14.958Z,13.01
2022-10-13T22:56:16.012Z,13.01
2022-10-13T22:58:17.361Z,13.01
2022-10-13T23:00:18.782Z,13.03
2022-10-13T23:02:19.732Z,13.05
2022-10-13T23:04:21.190Z,13.06
2022-10-13T23:06:22.101Z,13.04
2022-10-13T23:08:23.191Z,12.96
2022-10-13T23:10:24.855Z,12.99
2022-10-13T23:12:26.025Z,12.95
2022-10-13T23:14:27.489Z,12.95
2022-10-13T23:16:28.589Z,12.87
2022-10-13T23:18:30.416Z,13.03
2022-10-13T23:20:32.228Z,13.07
2022-10-13T23:22:33.981Z,13.02
2022-10-13T23:24:35.734Z,13.05
2022-10-13T23:26:36.844Z,13.03
2022-10-13T23:28:38.039Z,12.95
2022-10-13T23:30:39.701Z,12.93
2022-10-13T23:32:41.102Z,12.87
2022-10-13T23:34:42.522Z,12.88
2022-10-13T23:36:44.387Z,12.89
2022-10-13T23:38:45.482Z,12.9
2022-10-13T23:40:46.857Z,12.88
2022-10-13T23:42:48.094Z,12.84
2022-10-13T23:44:49.618Z,12.84
2022-10-13T23:46:50.694Z,12.82
2022-10-13T23:48:51.956Z,12.81
2022-10-13T23:50:53.690Z,12.8
2022-10-13T23:52:55.472Z,12.78
2022-10-13T23:54:56.966Z,12.78
2022-10-13T23:56:58.201Z,12.78
2022-10-13T23:58:59.279Z,12.78
